Time,TemperatureF,DewpointF,PressureIn,WindDirection,WindDirectionDegrees,WindSpeedMPH,WindSpeedGustMPH,Humidity,HourlyPrecipIn,Conditions,Clouds,dailyrainin,SoftwareType,DateUTC
2013-07-18 00:01:00,71.1,67.6,30.14,East,94,0.0,3.0,89,0.00,,,0.53,meteohub,2013-07-18 05:01:00,
2013-07-18 00:06:00,70.9,67.8,30.14,East,94,0.0,3.0,90,0.00,,,0.53,meteohub,2013-07-18 05:06:00,
2013-07-18 00:11:00,70.7,68.0,30.14,East,83,1.0,5.0,91,0.00,,,0.53,meteohub,2013-07-18 05:11:00,
2013-07-18 00:16:00,70.5,67.5,30.14,East,85,1.0,5.0,90,0.00,,,0.53,meteohub,2013-07-18 05:16:00,
2013-07-18 00:21:00,70.5,67.8,30.15,East,85,0.0,5.0,91,0.00,,,0.53,meteohub,2013-07-18 05:21:00,
2013-07-18 00:26:00,70.3,67.8,30.15,East,85,0.0,3.0,92,0.00,,,0.53,meteohub,2013-07-18 05:26:00,
2013-07-18 00:31:00,70.2,67.6,30.15,SSE,155,0.0,2.0,92,0.00,,,0.53,meteohub,2013-07-18 05:31:00,
2013-07-18 00:37:00,70.0,67.5,30.15,WSW,253,0.0,2.0,92,0.00,,,0.53,meteohub,2013-07-18 05:37:00,
2013-07-18 00:42:00,69.8,67.3,30.15,WSW,253,0.0,2.0,92,0.00,,,0.53,meteohub,2013-07-18 05:42:00,
2013-07-18 00:47:00,69.6,67.3,30.15,WSW,253,0.0,2.0,92,0.00,,,0.53,meteohub,2013-07-18 05:47:00,
2013-07-18 00:52:00,69.6,67.3,30.15,WSW,253,0.0,1.0,92,0.00,,,0.53,meteohub,2013-07-18 05:52:00,
2013-07-18 00:57:00,69.6,67.3,30.15,WSW,253,0.0,1.0,92,0.00,,,0.53,meteohub,2013-07-18 05:57:00,
2013-07-18 01:02:00,69.6,67.5,30.14,WSW,253,0.0,1.0,93,0.00,,,0.53,meteohub,2013-07-18 06:02:00,
2013-07-18 01:07:00,69.6,67.5,30.14,WSW,253,0.0,1.0,93,0.00,,,0.53,meteohub,2013-07-18 06:07:00,
2013-07-18 01:12:00,69.6,67.5,30.14,WSW,253,0.0,1.0,93,0.00,,,0.53,meteohub,2013-07-18 06:12:00,
2013-07-18 01:17:00,69.6,67.5,30.14,WSW,253,0.0,1.0,93,0.00,,,0.53,meteohub,2013-07-18 06:17:00,
2013-07-18 01:22:00,70.0,67.8,30.14,ESE,109,2.0,2.0,93,0.00,,,0.53,meteohub,2013-07-18 06:22:00,
2013-07-18 01:27:00,70.2,68.0,30.13,East,88,3.0,4.0,93,0.00,,,0.53,meteohub,2013-07-18 06:27:00,
2013-07-18 01:32:00,70.3,68.2,30.12,East,95,2.0,5.0,93,0.00,,,0.53,meteohub,2013-07-18 06:32:00,
2013-07-18 01:37:00,70.3,68.2,30.12,East,88,1.0,5.0,93,0.00,,,0.53,meteohub,2013-07-18 06:37:00,
2013-07-18 01:42:00,70.5,68.4,30.12,East,88,0.0,5.0,93,0.00,,,0.53,meteohub,2013-07-18 06:42:00,
2013-07-18 01:47:00,70.3,68.2,30.11,East,88,0.0,5.0,93,0.00,,,0.53,meteohub,2013-07-18 06:47:00,
2013-07-18 01:52:00,70.3,68.2,30.10,East,88,0.0,2.0,93,0.00,,,0.53,meteohub,2013-07-18 06:52:00,
2013-07-18 01:57:00,70.2,68.0,30.11,East,88,1.0,2.0,93,0.00,,,0.53,meteohub,2013-07-18 06:57:00,
2013-07-18 02:02:00,70.2,68.0,30.10,East,88,1.0,2.0,93,0.00,,,0.53,meteohub,2013-07-18 07:02:00,
2013-07-18 02:07:00,70.0,67.8,30.10,East,88,0.0,2.0,93,0.00,,,0.53,meteohub,2013-07-18 07:07:00,
2013-07-18 02:12:00,69.6,67.5,30.10,East,88,0.0,2.0,93,0.00,,,0.53,meteohub,2013-07-18 07:12:00,
2013-07-18 02:17:00,69.6,67.5,30.10,East,88,0.0,2.0,93,0.00,,,0.53,meteohub,2013-07-18 07:17:00,
2013-07-18 02:22:00,69.6,67.8,30.10,East,88,0.0,0.0,94,0.00,,,0.53,meteohub,2013-07-18 07:22:00,
2013-07-18 02:27:00,69.6,67.8,30.10,East,88,2.0,0.0,94,0.00,,,0.53,meteohub,2013-07-18 07:27:00,
2013-07-18 02:32:00,69.6,67.8,30.09,East,88,0.0,2.0,94,0.00,,,0.53,meteohub,2013-07-18 07:32:00,
2013-07-18 02:37:00,69.8,68.0,30.09,ESE,122,2.0,2.0,94,0.00,,,0.53,meteohub,2013-07-18 07:37:00,
2013-07-18 02:42:00,70.0,68.2,30.09,ESE,110,0.0,2.0,94,0.00,,,0.53,meteohub,2013-07-18 07:42:00,
2013-07-18 02:47:00,70.2,68.4,30.09,ESE,110,0.0,3.0,94,0.00,,,0.53,meteohub,2013-07-18 07:47:00,
2013-07-18 02:52:00,70.0,68.2,30.09,ESE,110,1.0,3.0,94,0.00,,,0.53,meteohub,2013-07-18 07:52:00,
2013-07-18 02:57:00,70.0,68.2,30.09,ESE,111,0.0,3.0,94,0.00,,,0.53,meteohub,2013-07-18 07:57:00,
2013-07-18 03:02:00,69.8,68.0,30.09,ESE,110,0.0,2.0,94,0.00,,,0.53,meteohub,2013-07-18 08:02:00,
2013-07-18 03:07:00,69.6,67.8,30.09,ESE,110,0.0,2.0,94,0.00,,,0.53,meteohub,2013-07-18 08:07:00,
2013-07-18 03:12:00,69.6,67.8,30.10,ESE,111,0.0,1.0,94,0.00,,,0.53,meteohub,2013-07-18 08:12:00,
2013-07-18 03:17:00,69.6,67.8,30.10,ESE,111,0.0,0.0,94,0.00,,,0.53,meteohub,2013-07-18 08:17:00,
2013-07-18 03:22:00,69.4,67.6,30.10,ESE,110,0.0,1.0,94,0.00,,,0.53,meteohub,2013-07-18 08:22:00,
2013-07-18 03:27:00,69.6,67.8,30.10,ESE,116,1.0,2.0,94,0.00,,,0.53,meteohub,2013-07-18 08:27:00,
2013-07-18 03:32:00,69.4,67.6,30.11,ESE,116,0.0,2.0,94,0.00,,,0.53,meteohub,2013-07-18 08:32:00,
2013-07-18 03:37:00,69.4,67.6,30.11,ESE,116,0.0,2.0,94,0.00,,,0.53,meteohub,2013-07-18 08:37:00,
2013-07-18 03:42:00,69.4,67.6,30.11,ESE,119,1.0,3.0,94,0.00,,,0.53,meteohub,2013-07-18 08:42:00,
2013-07-18 03:47:00,69.3,67.5,30.12,ESE,119,0.0,3.0,94,0.00,,,0.53,meteohub,2013-07-18 08:47:00,
2013-07-18 03:52:00,69.3,67.5,30.12,SSE,160,0.0,3.0,94,0.00,,,0.53,meteohub,2013-07-18 08:52:00,
2013-07-18 03:57:00,69.3,67.5,30.12,SSE,160,0.0,1.0,94,0.00,,,0.53,meteohub,2013-07-18 08:57:00,
2013-07-18 04:02:00,69.3,67.5,30.12,SSE,160,0.0,1.0,94,0.00,,,0.53,meteohub,2013-07-18 09:02:00,
2013-07-18 04:07:00,69.3,67.5,30.11,SSE,160,0.0,1.0,94,0.00,,,0.53,meteohub,2013-07-18 09:07:00,
2013-07-18 04:12:00,69.3,67.5,30.11,SSE,160,0.0,1.0,94,0.00,,,0.53,meteohub,2013-07-18 09:12:00,
2013-07-18 04:17:00,69.1,67.3,30.11,SSE,160,1.0,1.0,94,0.00,,,0.53,meteohub,2013-07-18 09:17:00,
2013-07-18 04:22:00,69.3,67.5,30.11,SSE,160,0.0,1.0,94,0.00,,,0.53,meteohub,2013-07-18 09:22:00,
2013-07-18 04:27:00,69.3,67.5,30.11,SSE,160,0.0,1.0,94,0.00,,,0.53,meteohub,2013-07-18 09:27:00,
2013-07-18 04:32:00,69.1,67.3,30.10,SSE,160,0.0,1.0,94,0.00,,,0.53,meteohub,2013-07-18 09:32:00,
2013-07-18 04:37:00,69.1,67.3,30.10,SSE,156,0.0,1.0,94,0.00,,,0.53,meteohub,2013-07-18 09:37:00,
2013-07-18 04:42:00,69.3,67.5,30.10,SSE,155,0.0,1.0,94,0.00,,,0.53,meteohub,2013-07-18 09:42:00,
2013-07-18 04:47:00,69.1,67.3,30.10,SSE,155,1.0,1.0,94,0.00,,,0.53,meteohub,2013-07-18 09:47:00,
2013-07-18 04:52:00,69.3,67.5,30.11,SSE,155,0.0,2.0,94,0.00,,,0.53,meteohub,2013-07-18 09:52:00,
2013-07-18 04:57:00,69.3,67.5,30.11,SE,130,0.0,2.0,94,0.00,,,0.53,meteohub,2013-07-18 09:57:00,
2013-07-18 05:02:00,69.3,67.5,30.11,SE,129,0.0,2.0,94,0.00,,,0.53,meteohub,2013-07-18 10:02:00,
2013-07-18 05:07:00,69.3,67.5,30.12,SE,130,0.0,2.0,94,0.00,,,0.53,meteohub,2013-07-18 10:07:00,
2013-07-18 05:12:00,69.1,67.3,30.12,SE,130,0.0,2.0,94,0.00,,,0.53,meteohub,2013-07-18 10:12:00,
2013-07-18 05:17:00,69.1,67.6,30.12,SE,130,0.0,1.0,95,0.00,,,0.53,meteohub,2013-07-18 10:17:00,
2013-07-18 05:22:00,69.1,67.6,30.12,SE,130,0.0,1.0,95,0.00,,,0.53,meteohub,2013-07-18 10:22:00,
2013-07-18 05:27:00,69.1,67.6,30.12,SE,130,0.0,0.0,95,0.00,,,0.53,meteohub,2013-07-18 10:27:00,
2013-07-18 05:32:00,69.1,67.6,30.12,SE,130,0.0,0.0,95,0.00,,,0.53,meteohub,2013-07-18 10:32:00,
2013-07-18 05:37:00,69.1,67.6,30.12,SE,130,0.0,0.0,95,0.00,,,0.53,meteohub,2013-07-18 10:37:00,
2013-07-18 05:42:00,69.1,67.6,30.12,SE,130,0.0,0.0,95,0.00,,,0.53,meteohub,2013-07-18 10:42:00,
2013-07-18 05:47:00,69.1,67.6,30.12,SE,130,0.0,0.0,95,0.00,,,0.53,meteohub,2013-07-18 10:47:00,
2013-07-18 05:52:00,69.1,67.6,30.12,SE,130,1.0,1.0,95,0.00,,,0.53,meteohub,2013-07-18 10:52:00,
2013-07-18 05:57:00,69.1,67.6,30.12,SE,128,1.0,2.0,95,0.00,,,0.53,meteohub,2013-07-18 10:57:00,
2013-07-18 06:02:00,69.1,67.3,30.11,ESE,116,0.0,2.0,94,0.00,,,0.53,meteohub,2013-07-18 11:02:00,
2013-07-18 06:07:00,69.3,67.5,30.11,ESE,113,2.0,2.0,94,0.00,,,0.53,meteohub,2013-07-18 11:07:00,
2013-07-18 06:12:00,69.3,67.5,30.12,ESE,113,1.0,3.0,94,0.00,,,0.53,meteohub,2013-07-18 11:12:00,
2013-07-18 06:17:00,69.3,67.5,30.12,ESE,113,0.0,3.0,94,0.00,,,0.53,meteohub,2013-07-18 11:17:00,
2013-07-18 06:22:00,69.3,67.5,30.12,ESE,113,0.0,2.0,94,0.00,,,0.53,meteohub,2013-07-18 11:22:00,
2013-07-18 06:27:00,69.3,67.5,30.12,ESE,113,0.0,2.0,94,0.00,,,0.53,meteohub,2013-07-18 11:27:00,
2013-07-18 06:32:00,69.3,67.5,30.12,ESE,113,0.0,1.0,94,0.00,,,0.53,meteohub,2013-07-18 11:32:00,
2013-07-18 06:37:00,69.3,67.5,30.12,ESE,113,0.0,2.0,94,0.00,,,0.53,meteohub,2013-07-18 11:37:00,
2013-07-18 06:42:00,69.4,67.6,30.12,ESE,113,0.0,2.0,94,0.00,,,0.53,meteohub,2013-07-18 11:42:00,
2013-07-18 06:47:00,69.4,67.6,30.12,ESE,113,0.0,2.0,94,0.00,,,0.53,meteohub,2013-07-18 11:47:00,
2013-07-18 06:52:00,69.4,68.0,30.12,ESE,113,0.0,0.0,95,0.00,,,0.53,meteohub,2013-07-18 11:52:00,
2013-07-18 06:57:00,69.6,68.2,30.12,ESE,113,0.0,1.0,95,0.00,,,0.53,meteohub,2013-07-18 11:57:00,
2013-07-18 07:02:00,69.8,68.0,30.12,ESE,113,0.0,1.0,94,0.00,,,0.53,meteohub,2013-07-18 12:02:00,
2013-07-18 07:07:00,70.0,68.2,30.12,ESE,104,2.0,2.0,94,0.00,,,0.53,meteohub,2013-07-18 12:07:00,
2013-07-18 07:12:00,70.2,68.4,30.12,ESE,104,0.0,3.0,94,0.00,,,0.53,meteohub,2013-07-18 12:12:00,
2013-07-18 07:17:00,70.3,68.5,30.12,ESE,104,1.0,3.0,94,0.00,,,0.53,meteohub,2013-07-18 12:17:00,
2013-07-18 07:22:00,70.9,69.1,30.12,ESE,103,1.0,3.0,94,0.00,,,0.53,meteohub,2013-07-18 12:22:00,
2013-07-18 07:27:00,71.2,69.1,30.12,ESE,107,1.0,3.0,93,0.00,,,0.53,meteohub,2013-07-18 12:27:00,
2013-07-18 07:32:00,71.8,69.6,30.12,East,87,1.0,4.0,93,0.00,,,0.53,meteohub,2013-07-18 12:32:00,
2013-07-18 07:37:00,72.3,69.8,30.12,ESE,108,2.0,5.0,92,0.00,,,0.53,meteohub,2013-07-18 12:37:00,
2013-07-18 07:42:00,72.9,70.2,30.13,East,93,5.0,6.0,91,0.00,,,0.53,meteohub,2013-07-18 12:42:00,
2013-07-18 07:47:00,73.0,70.3,30.12,East,95,1.0,6.0,91,0.00,,,0.53,meteohub,2013-07-18 12:47:00,
2013-07-18 07:52:00,73.6,70.5,30.13,East,101,3.0,6.0,90,0.00,,,0.53,meteohub,2013-07-18 12:52:00,
2013-07-18 07:57:00,73.8,70.7,30.13,East,92,2.0,6.0,90,0.00,,,0.53,meteohub,2013-07-18 12:57:00,
2013-07-18 08:02:00,74.1,71.1,30.13,East,94,1.0,6.0,90,0.00,,,0.53,meteohub,2013-07-18 13:02:00,
2013-07-18 08:07:00,74.7,70.9,30.13,East,89,3.0,7.0,88,0.00,,,0.53,meteohub,2013-07-18 13:07:00,
2013-07-18 08:12:00,75.0,71.2,30.14,East,87,0.0,7.0,88,0.00,,,0.53,meteohub,2013-07-18 13:12:00,
2013-07-18 08:17:00,75.6,71.8,30.14,East,85,1.0,6.0,88,0.00,,,0.53,meteohub,2013-07-18 13:17:00,
2013-07-18 08:22:00,75.9,71.4,30.13,SE,130,3.0,5.0,86,0.00,,,0.53,meteohub,2013-07-18 13:22:00,
2013-07-18 08:27:00,76.5,72.0,30.13,SE,137,0.0,4.0,86,0.00,,,0.53,meteohub,2013-07-18 13:27:00,
2013-07-18 08:32:00,76.6,71.8,30.14,East,86,2.0,5.0,85,0.00,,,0.53,meteohub,2013-07-18 13:32:00,
2013-07-18 08:37:00,76.8,71.2,30.14,ENE,77,1.0,5.0,83,0.00,,,0.53,meteohub,2013-07-18 13:37:00,
2013-07-18 08:42:00,77.2,72.0,30.14,NNE,20,2.0,5.0,84,0.00,,,0.53,meteohub,2013-07-18 13:42:00,
2013-07-18 08:47:00,77.4,72.1,30.14,East,93,5.0,5.0,84,0.00,,,0.53,meteohub,2013-07-18 13:47:00,
2013-07-18 08:53:00,77.5,72.3,30.14,ESE,116,1.0,5.0,84,0.00,,,0.53,meteohub,2013-07-18 13:53:00,
2013-07-18 08:58:00,77.9,72.3,30.13,East,101,2.0,5.0,83,0.00,,,0.53,meteohub,2013-07-18 13:58:00,
2013-07-18 09:03:00,78.3,72.7,30.14,ESE,122,4.0,5.0,83,0.00,,,0.53,meteohub,2013-07-18 14:03:00,
2013-07-18 09:08:00,78.4,72.1,30.13,ESE,123,3.0,4.0,81,0.00,,,0.53,meteohub,2013-07-18 14:08:00,
2013-07-18 09:13:00,78.6,72.3,30.14,SE,145,0.0,6.0,81,0.00,,,0.53,meteohub,2013-07-18 14:13:00,
2013-07-18 09:18:00,79.0,73.0,30.14,SSE,155,1.0,6.0,82,0.00,,,0.53,meteohub,2013-07-18 14:18:00,
2013-07-18 09:23:00,79.2,72.5,30.14,SE,139,0.0,5.0,80,0.00,,,0.53,meteohub,2013-07-18 14:23:00,
2013-07-18 09:28:00,79.3,73.0,30.14,NNW,336,1.0,6.0,81,0.00,,,0.53,meteohub,2013-07-18 14:28:00,
2013-07-18 09:33:00,79.3,73.4,30.14,West,276,1.0,6.0,82,0.00,,,0.53,meteohub,2013-07-18 14:33:00,
2013-07-18 09:38:00,79.9,73.9,30.14,SE,139,1.0,4.0,82,0.00,,,0.53,meteohub,2013-07-18 14:38:00,
2013-07-18 09:44:00,80.8,73.9,30.14,ESE,123,0.0,3.0,80,0.00,,,0.53,meteohub,2013-07-18 14:44:00,
2013-07-18 09:49:00,81.0,74.1,30.14,East,85,0.0,3.0,80,0.00,,,0.53,meteohub,2013-07-18 14:49:00,
2013-07-18 09:54:00,81.3,73.4,30.14,East,88,1.0,3.0,77,0.00,,,0.53,meteohub,2013-07-18 14:54:00,
2013-07-18 09:59:00,81.9,73.6,30.14,SE,145,2.0,2.0,76,0.00,,,0.53,meteohub,2013-07-18 14:59:00,
2013-07-18 10:04:00,82.0,74.1,30.14,SE,136,0.0,3.0,77,0.00,,,0.53,meteohub,2013-07-18 15:04:00,
2013-07-18 10:09:00,82.0,73.8,30.14,East,87,1.0,3.0,76,0.00,,,0.53,meteohub,2013-07-18 15:09:00,
2013-07-18 10:14:00,81.9,73.2,30.14,East,89,1.0,4.0,75,0.00,,,0.53,meteohub,2013-07-18 15:14:00,
2013-07-18 10:19:00,81.3,73.4,30.14,SW,214,1.0,5.0,77,0.00,,,0.53,meteohub,2013-07-18 15:19:00,
2013-07-18 10:25:00,81.1,73.6,30.14,SW,222,1.0,5.0,78,0.00,,,0.53,meteohub,2013-07-18 15:25:00,
2013-07-18 10:30:00,81.3,74.1,30.14,SW,222,0.0,3.0,79,0.00,,,0.53,meteohub,2013-07-18 15:30:00,
2013-07-18 10:35:00,82.2,75.0,30.14,NNW,336,1.0,3.0,79,0.00,,,0.53,meteohub,2013-07-18 15:35:00,
2013-07-18 10:40:00,83.1,74.8,30.14,East,91,2.0,3.0,76,0.00,,,0.53,meteohub,2013-07-18 15:40:00,
2013-07-18 10:45:00,83.5,75.0,30.15,East,92,0.0,3.0,76,0.00,,,0.53,meteohub,2013-07-18 15:45:00,
2013-07-18 10:50:00,83.7,75.2,30.15,North,354,1.0,3.0,76,0.00,,,0.53,meteohub,2013-07-18 15:50:00,
2013-07-18 10:55:00,82.9,75.4,30.14,WNW,285,0.0,4.0,78,0.00,,,0.53,meteohub,2013-07-18 15:55:00,
2013-07-18 11:00:00,82.9,75.0,30.14,WNW,295,1.0,4.0,77,0.00,,,0.53,meteohub,2013-07-18 16:00:00,
2013-07-18 11:05:00,82.9,74.7,30.15,SE,137,3.0,4.0,76,0.00,,,0.53,meteohub,2013-07-18 16:05:00,
2013-07-18 11:11:00,83.7,74.8,30.15,ESE,106,0.0,4.0,75,0.00,,,0.53,meteohub,2013-07-18 16:11:00,
2013-07-18 11:16:00,84.0,75.2,30.15,West,269,1.0,4.0,75,0.00,,,0.53,meteohub,2013-07-18 16:16:00,
2013-07-18 11:21:00,83.5,74.7,30.15,West,269,0.0,5.0,75,0.00,,,0.53,meteohub,2013-07-18 16:21:00,
2013-07-18 11:26:00,83.7,75.7,30.14,North,4,0.0,5.0,77,0.00,,,0.53,meteohub,2013-07-18 16:26:00,
2013-07-18 11:31:00,84.0,76.1,30.15,NE,35,0.0,5.0,77,0.00,,,0.53,meteohub,2013-07-18 16:31:00,
2013-07-18 11:36:00,84.4,75.6,30.14,NE,45,0.0,5.0,75,0.00,,,0.53,meteohub,2013-07-18 16:36:00,
2013-07-18 11:41:00,84.7,76.3,30.14,SSE,150,0.0,3.0,76,0.00,,,0.53,meteohub,2013-07-18 16:41:00,
2013-07-18 11:46:00,85.1,75.9,30.14,NE,55,0.0,3.0,74,0.00,,,0.53,meteohub,2013-07-18 16:46:00,
2013-07-18 11:51:00,85.1,75.9,30.14,East,85,2.0,4.0,74,0.00,,,0.53,meteohub,2013-07-18 16:51:00,
2013-07-18 11:57:00,85.5,75.4,30.14,NE,56,2.0,5.0,72,0.00,,,0.53,meteohub,2013-07-18 16:57:00,
2013-07-18 12:02:00,85.8,74.8,30.14,East,98,2.0,5.0,70,0.00,,,0.53,meteohub,2013-07-18 17:02:00,
2013-07-18 12:07:00,86.0,75.0,30.14,East,83,2.0,5.0,70,0.00,,,0.53,meteohub,2013-07-18 17:07:00,
2013-07-18 12:12:00,85.5,74.5,30.13,ENE,76,0.0,5.0,70,0.00,,,0.53,meteohub,2013-07-18 17:12:00,
2013-07-18 12:17:00,85.5,75.7,30.13,ENE,76,0.0,5.0,73,0.00,,,0.53,meteohub,2013-07-18 17:17:00,
2013-07-18 12:22:00,85.8,75.7,30.13,SSE,153,1.0,5.0,72,0.00,,,0.53,meteohub,2013-07-18 17:22:00,
2013-07-18 12:27:00,86.7,76.1,30.12,East,82,2.0,3.0,71,0.00,,,0.53,meteohub,2013-07-18 17:27:00,
2013-07-18 12:32:00,86.7,74.5,30.12,East,88,1.0,6.0,67,0.00,,,0.53,meteohub,2013-07-18 17:32:00,
2013-07-18 12:37:00,86.7,73.9,30.12,ESE,118,1.0,6.0,66,0.00,,,0.53,meteohub,2013-07-18 17:37:00,
2013-07-18 12:42:00,86.9,75.6,30.12,ESE,118,1.0,6.0,69,0.00,,,0.53,meteohub,2013-07-18 17:42:00,
2013-07-18 12:47:00,87.1,76.5,30.12,ESE,118,0.0,5.0,71,0.00,,,0.53,meteohub,2013-07-18 17:47:00,
2013-07-18 12:52:00,87.1,75.7,30.12,ESE,102,2.0,3.0,69,0.00,,,0.53,meteohub,2013-07-18 17:52:00,
2013-07-18 12:57:00,86.5,75.6,30.12,East,100,1.0,3.0,70,0.00,,,0.53,meteohub,2013-07-18 17:57:00,
2013-07-18 13:02:00,86.5,75.9,30.11,East,100,0.0,3.0,71,0.00,,,0.53,meteohub,2013-07-18 18:02:00,
2013-07-18 13:07:00,86.2,75.7,30.11,WNW,285,1.0,3.0,71,0.00,,,0.53,meteohub,2013-07-18 18:07:00,
2013-07-18 13:12:00,85.6,75.9,30.11,WNW,291,2.0,3.0,73,0.00,,,0.53,meteohub,2013-07-18 18:12:00,
2013-07-18 13:17:00,85.6,75.6,30.10,WNW,291,0.0,3.0,72,0.00,,,0.53,meteohub,2013-07-18 18:17:00,
2013-07-18 13:22:00,85.5,75.7,30.10,West,266,1.0,3.0,73,0.00,,,0.53,meteohub,2013-07-18 18:22:00,
2013-07-18 13:27:00,85.3,76.1,30.09,West,266,0.0,4.0,74,0.00,,,0.53,meteohub,2013-07-18 18:27:00,
2013-07-18 13:32:00,85.3,76.1,30.09,West,266,0.0,4.0,74,0.00,,,0.53,meteohub,2013-07-18 18:32:00,
2013-07-18 13:37:00,84.9,75.7,30.09,West,266,1.0,3.0,74,0.00,,,0.53,meteohub,2013-07-18 18:37:00,
2013-07-18 13:42:00,85.5,76.3,30.08,West,266,1.0,2.0,74,0.00,,,0.53,meteohub,2013-07-18 18:42:00,
2013-07-18 13:47:00,86.4,77.0,30.08,NE,40,3.0,3.0,74,0.00,,,0.53,meteohub,2013-07-18 18:47:00,
2013-07-18 13:52:00,87.3,75.9,30.07,East,85,0.0,3.0,69,0.00,,,0.53,meteohub,2013-07-18 18:52:00,
2013-07-18 13:57:00,88.0,76.1,30.07,ENE,77,0.0,3.0,68,0.00,,,0.53,meteohub,2013-07-18 18:57:00,
2013-07-18 14:02:00,87.4,75.2,30.07,ESE,105,0.0,3.0,67,0.00,,,0.53,meteohub,2013-07-18 19:02:00,
2013-07-18 14:07:00,86.9,75.9,30.07,East,85,0.0,0.0,70,0.00,,,0.53,meteohub,2013-07-18 19:07:00,
2013-07-18 14:12:00,86.7,75.7,30.07,East,84,0.0,0.0,70,0.00,,,0.53,meteohub,2013-07-18 19:12:00,
2013-07-18 14:17:00,86.7,76.1,30.06,East,84,0.0,0.0,71,0.00,,,0.53,meteohub,2013-07-18 19:17:00,
2013-07-18 14:22:00,87.1,76.1,30.06,East,84,0.0,0.0,70,0.00,,,0.53,meteohub,2013-07-18 19:22:00,
2013-07-18 14:27:00,87.6,75.4,30.06,East,84,0.0,0.0,67,0.00,,,0.53,meteohub,2013-07-18 19:27:00,
2013-07-18 14:32:00,88.0,77.0,30.06,East,85,0.0,0.0,70,0.00,,,0.53,meteohub,2013-07-18 19:32:00,
2013-07-18 14:37:00,88.0,74.7,30.06,East,91,0.0,0.0,65,0.00,,,0.53,meteohub,2013-07-18 19:37:00,
2013-07-18 14:42:00,88.3,75.0,30.06,SSE,154,0.0,0.0,65,0.00,,,0.53,meteohub,2013-07-18 19:42:00,
2013-07-18 14:47:00,88.2,75.4,30.06,ENE,65,0.0,0.0,66,0.00,,,0.53,meteohub,2013-07-18 19:47:00,
2013-07-18 14:52:00,87.4,74.7,30.06,East,95,0.0,0.0,66,0.00,,,0.53,meteohub,2013-07-18 19:52:00,
2013-07-18 14:57:00,87.3,74.5,30.06,East,100,0.0,0.0,66,0.00,,,0.53,meteohub,2013-07-18 19:57:00,
2013-07-18 15:02:00,87.6,74.3,30.05,East,97,0.0,0.0,65,0.00,,,0.53,meteohub,2013-07-18 20:02:00,
2013-07-18 15:07:00,88.3,74.1,30.05,East,95,0.0,0.0,63,0.00,,,0.53,meteohub,2013-07-18 20:07:00,
2013-07-18 15:12:00,88.9,74.7,30.05,ESE,123,0.0,0.0,63,0.00,,,0.53,meteohub,2013-07-18 20:12:00,
2013-07-18 15:17:00,89.4,76.6,30.04,East,101,2.0,8.0,66,0.00,,,0.53,meteohub,2013-07-18 20:17:00,
2013-07-18 15:22:00,90.0,76.6,30.04,ENE,61,0.0,8.0,65,0.00,,,0.53,meteohub,2013-07-18 20:22:00,
2013-07-18 15:27:00,89.6,73.4,30.04,East,94,0.0,8.0,59,0.00,,,0.53,meteohub,2013-07-18 20:27:00,
2013-07-18 15:32:00,88.5,72.9,30.04,East,79,0.0,3.0,60,0.00,,,0.53,meteohub,2013-07-18 20:32:00,
2013-07-18 15:37:00,88.2,74.8,30.04,ENE,72,0.0,0.0,65,0.00,,,0.53,meteohub,2013-07-18 20:37:00,
2013-07-18 15:42:00,88.5,73.8,30.04,SE,143,0.0,0.0,62,0.00,,,0.53,meteohub,2013-07-18 20:42:00,
2013-07-18 15:47:00,89.4,74.7,30.04,SE,125,0.0,0.0,62,0.00,,,0.53,meteohub,2013-07-18 20:47:00,
2013-07-18 15:52:00,90.0,75.7,30.04,East,101,0.0,0.0,63,0.00,,,0.53,meteohub,2013-07-18 20:52:00,
2013-07-18 15:57:00,90.3,74.5,30.04,ENE,68,0.0,0.0,60,0.00,,,0.53,meteohub,2013-07-18 20:57:00,
2013-07-18 16:02:00,90.5,74.1,30.04,ESE,120,0.0,0.0,59,0.00,,,0.53,meteohub,2013-07-18 21:02:00,
2013-07-18 16:07:00,90.5,73.8,30.04,SE,135,0.0,0.0,58,0.00,,,0.53,meteohub,2013-07-18 21:07:00,
2013-07-18 16:12:00,90.5,73.2,30.04,East,84,0.0,0.0,57,0.00,,,0.53,meteohub,2013-07-18 21:12:00,
2013-07-18 16:17:00,90.3,75.6,30.04,ESE,122,0.0,0.0,62,0.00,,,0.53,meteohub,2013-07-18 21:17:00,
2013-07-18 16:22:00,90.5,76.1,30.04,SSE,162,0.0,0.0,63,0.00,,,0.53,meteohub,2013-07-18 21:22:00,
2013-07-18 16:27:00,90.9,73.6,30.04,East,97,6.0,6.0,57,0.00,,,0.53,meteohub,2013-07-18 21:27:00,
2013-07-18 16:32:00,90.5,74.1,30.04,ESE,110,1.0,10.0,59,0.00,,,0.53,meteohub,2013-07-18 21:32:00,
2013-07-18 16:37:00,89.8,74.5,30.04,South,187,2.0,10.0,61,0.00,,,0.53,meteohub,2013-07-18 21:37:00,
2013-07-18 16:42:00,86.7,73.9,30.05,WSW,250,7.0,10.0,66,0.00,,,0.53,meteohub,2013-07-18 21:42:00,
2013-07-18 16:47:00,84.7,73.9,30.04,WNW,303,5.0,12.0,70,0.00,,,0.53,meteohub,2013-07-18 21:47:00,
2013-07-18 16:52:00,83.1,73.2,30.05,SW,217,6.0,12.0,72,0.00,,,0.53,meteohub,2013-07-18 21:52:00,
2013-07-18 16:57:00,81.9,73.2,30.04,West,275,1.0,12.0,75,0.00,,,0.53,meteohub,2013-07-18 21:57:00,
2013-07-18 17:02:00,81.1,73.2,30.04,NNW,328,2.0,12.0,77,0.00,,,0.53,meteohub,2013-07-18 22:02:00,
2013-07-18 17:07:00,80.6,72.7,30.04,SW,236,3.0,10.0,77,0.00,,,0.53,meteohub,2013-07-18 22:07:00,
2013-07-18 17:12:00,80.2,72.7,30.04,SW,227,0.0,7.0,78,0.00,,,0.53,meteohub,2013-07-18 22:12:00,
2013-07-18 17:17:00,80.1,73.0,30.04,West,263,1.0,7.0,79,0.00,,,0.53,meteohub,2013-07-18 22:17:00,
2013-07-18 17:22:00,79.9,72.9,30.03,WNW,297,3.0,6.0,79,0.00,,,0.53,meteohub,2013-07-18 22:22:00,
2013-07-18 17:27:00,79.9,73.2,30.03,WSW,250,1.0,6.0,80,0.00,,,0.53,meteohub,2013-07-18 22:27:00,
2013-07-18 17:33:00,79.9,73.6,30.02,WSW,250,1.0,4.0,81,0.00,,,0.53,meteohub,2013-07-18 22:33:00,
2013-07-18 17:38:00,79.9,73.6,30.02,WSW,250,0.0,4.0,81,0.00,,,0.53,meteohub,2013-07-18 22:38:00,
2013-07-18 17:43:00,80.1,73.8,30.02,WSW,250,0.0,3.0,81,0.00,,,0.53,meteohub,2013-07-18 22:43:00,
2013-07-18 17:48:00,80.4,73.8,30.02,WSW,250,0.0,2.0,80,0.00,,,0.53,meteohub,2013-07-18 22:48:00,
2013-07-18 17:53:00,80.6,73.4,30.02,WSW,249,0.0,2.0,79,0.00,,,0.53,meteohub,2013-07-18 22:53:00,
2013-07-18 17:58:00,80.6,73.4,30.02,WSW,249,0.0,2.0,79,0.00,,,0.53,meteohub,2013-07-18 22:58:00,
2013-07-18 18:03:00,80.4,74.1,30.02,WSW,249,0.0,1.0,81,0.00,,,0.53,meteohub,2013-07-18 23:03:00,
2013-07-18 18:08:00,80.6,74.3,30.02,WSW,249,0.0,1.0,81,0.00,,,0.53,meteohub,2013-07-18 23:08:00,
2013-07-18 18:13:00,80.8,74.5,30.02,WSW,249,0.0,1.0,81,0.00,,,0.53,meteohub,2013-07-18 23:13:00,
2013-07-18 18:19:00,80.6,73.9,30.02,SW,215,0.0,1.0,80,0.00,,,0.53,meteohub,2013-07-18 23:19:00,
2013-07-18 18:24:00,80.4,73.8,30.02,SW,215,0.0,2.0,80,0.00,,,0.53,meteohub,2013-07-18 23:24:00,
2013-07-18 18:29:00,80.8,73.9,30.02,SW,215,0.0,2.0,80,0.00,,,0.53,meteohub,2013-07-18 23:29:00,
2013-07-18 18:34:00,81.1,73.6,30.03,SSW,212,1.0,2.0,78,0.00,,,0.53,meteohub,2013-07-18 23:34:00,
2013-07-18 18:39:00,81.5,74.7,30.03,SSW,196,0.0,2.0,80,0.00,,,0.53,meteohub,2013-07-18 23:39:00,
2013-07-18 18:44:00,81.5,74.3,30.03,SSW,196,0.0,2.0,79,0.00,,,0.53,meteohub,2013-07-18 23:44:00,
2013-07-18 18:49:00,81.3,74.1,30.03,SSW,196,1.0,2.0,79,0.00,,,0.53,meteohub,2013-07-18 23:49:00,
2013-07-18 18:54:00,81.1,74.7,30.04,WSW,253,2.0,2.0,81,0.00,,,0.53,meteohub,2013-07-18 23:54:00,
2013-07-18 18:59:00,80.4,74.5,30.04,WNW,283,0.0,2.0,82,0.00,,,0.53,meteohub,2013-07-18 23:59:00,
2013-07-18 19:05:00,80.1,74.5,30.04,WNW,284,0.0,3.0,83,0.00,,,0.53,meteohub,2013-07-19 00:05:00,
2013-07-18 19:10:00,79.9,74.3,30.04,WNW,284,1.0,3.0,83,0.00,,,0.00,meteohub,2013-07-19 00:10:00,
2013-07-18 19:15:00,79.7,74.5,30.04,WNW,284,0.0,3.0,84,0.00,,,0.00,meteohub,2013-07-19 00:15:00,
2013-07-18 19:20:00,79.5,74.3,30.04,WNW,284,0.0,3.0,84,0.00,,,0.00,meteohub,2013-07-19 00:20:00,
2013-07-18 19:25:00,79.3,74.1,30.04,WNW,284,0.0,1.0,84,0.00,,,0.00,meteohub,2013-07-19 00:25:00,
2013-07-18 19:30:00,79.3,74.5,30.04,WNW,284,0.0,1.0,85,0.00,,,0.00,meteohub,2013-07-19 00:30:00,
2013-07-18 19:35:00,79.2,74.7,30.04,WNW,284,1.0,1.0,86,0.00,,,0.00,meteohub,2013-07-19 00:35:00,
2013-07-18 19:40:00,78.6,74.1,30.05,WNW,284,0.0,3.0,86,0.00,,,0.00,meteohub,2013-07-19 00:40:00,
2013-07-18 19:45:00,78.4,74.3,30.05,WNW,284,0.0,3.0,87,0.00,,,0.00,meteohub,2013-07-19 00:45:00,
2013-07-18 19:50:00,78.4,74.3,30.05,WNW,284,0.0,3.0,87,0.00,,,0.00,meteohub,2013-07-19 00:50:00,
2013-07-18 19:56:00,78.3,73.8,30.05,WNW,284,0.0,1.0,86,0.00,,,0.00,meteohub,2013-07-19 00:56:00,
2013-07-18 20:01:00,78.3,74.1,30.05,WNW,284,0.0,0.0,87,0.00,,,0.00,meteohub,2013-07-19 01:01:00,
2013-07-18 20:06:00,78.1,73.9,30.05,WNW,284,0.0,0.0,87,0.00,,,0.00,meteohub,2013-07-19 01:06:00,
2013-07-18 20:07:00,78.1,73.9,30.05,WNW,284,0.0,0.0,87,0.00,,,0.00,meteohub,2013-07-19 01:07:00,
2013-07-18 20:12:00,77.9,73.8,30.06,WNW,284,0.0,0.0,87,0.00,,,0.00,meteohub,2013-07-19 01:12:00,
2013-07-18 20:17:00,77.7,73.9,30.06,WNW,284,0.0,0.0,88,0.00,,,0.00,meteohub,2013-07-19 01:17:00,
2013-07-18 20:22:00,77.7,73.9,30.06,WNW,284,0.0,1.0,88,0.00,,,0.00,meteohub,2013-07-19 01:22:00,
2013-07-18 20:27:00,77.5,73.8,30.06,WNW,284,0.0,1.0,88,0.00,,,0.00,meteohub,2013-07-19 01:27:00,
2013-07-18 20:32:00,77.5,74.1,30.06,WNW,284,0.0,1.0,89,0.00,,,0.00,meteohub,2013-07-19 01:32:00,
2013-07-18 20:37:00,77.4,73.9,30.07,WNW,284,0.0,0.0,89,0.00,,,0.00,meteohub,2013-07-19 01:37:00,
2013-07-18 20:42:00,77.4,73.9,30.07,WNW,284,0.0,0.0,89,0.00,,,0.00,meteohub,2013-07-19 01:42:00,
2013-07-18 20:47:00,77.2,73.8,30.07,WNW,284,0.0,0.0,89,0.00,,,0.00,meteohub,2013-07-19 01:47:00,
2013-07-18 20:52:00,77.2,73.8,30.08,WNW,284,0.0,0.0,89,0.00,,,0.00,meteohub,2013-07-19 01:52:00,
2013-07-18 20:57:00,77.2,73.8,30.08,WNW,284,0.0,0.0,89,0.00,,,0.00,meteohub,2013-07-19 01:57:00,
2013-07-18 21:02:00,77.2,73.8,30.08,WNW,284,0.0,1.0,89,0.00,,,0.00,meteohub,2013-07-19 02:02:00,
2013-07-18 21:07:00,77.2,73.8,30.08,WNW,284,0.0,1.0,89,0.00,,,0.00,meteohub,2013-07-19 02:07:00,
2013-07-18 21:12:00,77.2,73.9,30.09,WNW,284,0.0,1.0,90,0.00,,,0.00,meteohub,2013-07-19 02:12:00,
2013-07-18 21:17:00,77.2,73.9,30.09,WNW,284,0.0,1.0,90,0.00,,,0.00,meteohub,2013-07-19 02:17:00,
2013-07-18 21:22:00,77.0,73.8,30.09,WNW,284,0.0,1.0,90,0.00,,,0.00,meteohub,2013-07-19 02:22:00,
2013-07-18 21:27:00,76.8,73.6,30.09,WNW,284,0.0,1.0,90,0.00,,,0.00,meteohub,2013-07-19 02:27:00,
2013-07-18 21:32:00,76.8,73.6,30.09,WNW,284,0.0,0.0,90,0.00,,,0.00,meteohub,2013-07-19 02:32:00,
2013-07-18 21:37:00,76.6,73.2,30.09,WNW,284,0.0,0.0,89,0.00,,,0.00,meteohub,2013-07-19 02:37:00,
2013-07-18 21:42:00,76.6,73.2,30.09,WNW,284,0.0,1.0,89,0.00,,,0.00,meteohub,2013-07-19 02:42:00,
2013-07-18 21:47:00,76.6,73.4,30.09,WNW,284,0.0,1.0,90,0.00,,,0.00,meteohub,2013-07-19 02:47:00,
2013-07-18 21:52:00,76.6,73.4,30.09,WNW,284,0.0,0.0,90,0.00,,,0.00,meteohub,2013-07-19 02:52:00,
2013-07-18 21:57:00,76.6,73.4,30.09,WNW,284,0.0,0.0,90,0.00,,,0.00,meteohub,2013-07-19 02:57:00,
2013-07-18 22:02:00,76.5,73.2,30.09,WNW,284,0.0,0.0,90,0.00,,,0.00,meteohub,2013-07-19 03:02:00,
2013-07-18 22:07:00,76.5,73.2,30.09,WNW,284,0.0,0.0,90,0.00,,,0.00,meteohub,2013-07-19 03:07:00,
2013-07-18 22:12:00,76.5,73.0,30.09,WNW,284,0.0,0.0,89,0.00,,,0.00,meteohub,2013-07-19 03:12:00,
2013-07-18 22:17:00,76.5,73.0,30.09,WNW,284,0.0,0.0,89,0.00,,,0.00,meteohub,2013-07-19 03:17:00,
2013-07-18 22:22:00,76.5,73.0,30.09,WNW,284,0.0,0.0,89,0.00,,,0.00,meteohub,2013-07-19 03:22:00,
2013-07-18 22:27:00,76.5,73.2,30.09,WNW,284,0.0,0.0,90,0.00,,,0.00,meteohub,2013-07-19 03:27:00,
2013-07-18 22:32:00,76.3,73.0,30.09,WNW,284,0.0,0.0,90,0.00,,,0.00,meteohub,2013-07-19 03:32:00,
2013-07-18 22:37:00,76.3,72.9,30.09,WNW,284,0.0,0.0,89,0.00,,,0.00,meteohub,2013-07-19 03:37:00,
2013-07-18 22:42:00,76.1,72.9,30.10,WNW,284,0.0,0.0,90,0.00,,,0.00,meteohub,2013-07-19 03:42:00,
2013-07-18 22:47:00,75.9,73.0,30.10,WNW,284,0.0,0.0,91,0.00,,,0.00,meteohub,2013-07-19 03:47:00,
2013-07-18 22:52:00,75.7,72.9,30.10,WNW,284,0.0,0.0,91,0.00,,,0.00,meteohub,2013-07-19 03:52:00,
2013-07-18 22:58:00,75.7,72.9,30.10,WNW,284,0.0,0.0,91,0.00,,,0.00,meteohub,2013-07-19 03:58:00,
2013-07-18 23:01:00,75.6,72.7,30.10,WNW,284,0.0,0.0,91,0.00,,,0.00,meteohub,2013-07-19 04:01:00,
2013-07-18 23:02:00,75.6,72.7,30.10,WNW,284,0.0,0.0,91,0.00,,,0.00,meteohub,2013-07-19 04:02:00,
2013-07-18 23:04:00,75.6,72.7,30.10,WNW,284,0.0,0.0,91,0.00,,,0.00,meteohub,2013-07-19 04:04:00,
2013-07-18 23:09:00,75.6,72.7,30.10,WNW,284,0.0,0.0,91,0.00,,,0.00,meteohub,2013-07-19 04:09:00,
2013-07-18 23:14:00,75.6,72.7,30.10,WNW,284,0.0,0.0,91,0.00,,,0.00,meteohub,2013-07-19 04:14:00,
2013-07-18 23:19:00,75.6,72.7,30.10,WNW,284,0.0,0.0,91,0.00,,,0.00,meteohub,2013-07-19 04:19:00,
2013-07-18 23:24:00,75.4,72.5,30.10,WNW,284,0.0,0.0,91,0.00,,,0.00,meteohub,2013-07-19 04:24:00,
2013-07-18 23:29:00,75.4,72.3,30.10,WNW,284,0.0,0.0,90,0.00,,,0.00,meteohub,2013-07-19 04:29:00,
2013-07-18 23:34:00,75.2,72.1,30.10,WNW,284,0.0,0.0,90,0.00,,,0.00,meteohub,2013-07-19 04:34:00,
2013-07-18 23:39:00,75.2,72.1,30.10,WNW,284,0.0,0.0,90,0.00,,,0.00,meteohub,2013-07-19 04:39:00,
2013-07-18 23:45:00,75.0,72.0,30.10,WNW,284,0.0,0.0,90,0.00,,,0.00,meteohub,2013-07-19 04:45:00,
2013-07-18 23:50:00,75.0,72.1,30.10,WNW,284,0.0,0.0,91,0.00,,,0.00,meteohub,2013-07-19 04:50:00,
2013-07-18 23:55:00,74.8,72.0,30.10,WNW,284,0.0,0.0,91,0.00,,,0.00,meteohub,2013-07-19 04:55:00,